Wetona, Pennsylvania
Current Conditions -  °F | °C
As of 4:53 AM on Sunday 23 Nov 2014 (Local Time) from KELM Reporting Station
Overcast Overcast  
Wind Chill: 42°   Ceiling: 4000
Heat Index: 42°   Visibility: 10mi
Dew Point: 36°   Wind: 0mph
Humidity: 79%   Direction: NA
Pressure: 30.06"   Gusts: NA
Location:  41.8495°N, 76.7925°W
Report Text: KELM 230953Z AUTO 00000KT 10SM OVC040 06/02 A3006 RMK AO2 SLP187 T00560022
Loading
Personal Weather Stations






























Interactive Weather Map New forecast layout! Learn more

10-Day Weather Forecast

Advertisements
Track Severe Weather on mobile